• Join FlightAware (Why Join?)
  • Login
  • US Flag 
09:15AM EDT


 

Airport Tracker/Info


-or-


 

Live Flight TrackerFlight Track Log ✈ AIE860 ✈ 30-Aug-2013 ✈ CYVP - CYZG

Flight Track Log - Related Links

Times and Time Zones

All times are in EDT time to prevent confusion due to time zone crossing. See the AIE860 flight status page for this flight to view local times or setup timezone preferences in your user account.

Time Position Orientation Groundspeed Altitude Reporting Facility
EDT Latitude Longitude Course Direction KTS MPH feet Rate Location/Type
08:08AM 58.0833 -68.4167 322° Northwest 140 161 900  Level Montreal Center
08:09AM 58.0833 -68.4833 270° West 130 150 2,800 1,740 Climbing Montreal Center
08:10AM 58.1167 -68.5000 345° North 160 184 4,400 1,500 Climbing Montreal Center
08:11AM 58.1667 -68.5500 332° Northwest 160 184 5,900 1,500 Climbing Montreal Center
08:12AM 58.2000 -68.6167 314° West 160 184 7,400 1,500 Climbing Montreal Center
08:13AM 58.2333 -68.6667 322° Northwest 160 184 9,000 1,620 Climbing Montreal Center
08:14AM 58.3777 -68.8498 322° Northwest  Level FlightAware Approximate
08:14AM 58.2667 -68.7333 314° West 160 184 10,700  Level Montreal Center
08:15AM 58.2833 -68.7500 332° Northwest 170 196 12,000 1,200 Climbing Montreal Center
08:16AM 58.3333 -68.8167 325° Northwest 170 196 13,100 1,020 Climbing Montreal Center
08:17AM 58.3833 -68.8667 332° Northwest 170 196 14,100 1,020 Climbing Montreal Center
08:18AM 58.4167 -68.9167 322° Northwest 180 207 15,200 1,140 Climbing Montreal Center
08:19AM 58.4500 -68.9833 314° West 170 196 16,400 1,080 Climbing Montreal Center
08:20AM 58.4833 -69.0333 322° Northwest 180 207 17,400 1,080 Climbing Montreal Center
08:21AM 58.5333 -69.1333 314° West 180 207 18,600 1,020 Climbing Montreal Center
08:22AM 58.5667 -69.1833 322° Northwest 180 207 19,500 960 Climbing Montreal Center
08:23AM 58.6000 -69.2500 314° West 180 207 20,600 960 Climbing Montreal Center
08:24AM 58.6500 -69.3000 333° Northwest 180 207 21,500 900 Climbing Montreal Center
08:25AM 58.6833 -69.3500 322° Northwest 180 207 22,400 840 Climbing Montreal Center
08:26AM 58.7333 -69.4167 325° Northwest 170 196 23,200 720 Climbing Montreal Center
08:27AM 58.7667 -69.4667 322° Northwest 170 196 23,900 420 Climbing Montreal Center
08:28AM 58.8000 -69.5333 314° West 180 207 24,100 60 Climbing Montreal Center
08:29AM 58.8500 -69.6167 319° Northwest 210 242 24,100  Level Montreal Center
08:30AM 58.9000 -69.6833 325° Northwest 220 253 24,100 -60 Level Montreal Center
08:31AM 58.9500 -69.7667 319° Northwest 230 265 24,000 -60 Descending Montreal Center
08:32AM 59.0000 -69.8500 319° Northwest 230 265 24,000  Level Montreal Center
08:33AM 59.0333 -69.9167 314° West 230 265 24,000  Level Montreal Center
08:34AM 59.1000 -70.0000 327° Northwest 230 265 24,000  Level Montreal Center
08:35AM 59.1500 -70.0833 319° Northwest 230 265 24,000  Level Montreal Center
08:36AM 59.2000 -70.1500 326° Northwest 230 265 24,000  Level Montreal Center
08:37AM 59.2500 -70.2333 320° Northwest 230 265 24,000  Level Montreal Center
08:38AM 59.3000 -70.3333 314° West 230 265 24,000  Level Montreal Center
08:39AM 59.3500 -70.3833 333° Northwest 230 265 24,000  Level Montreal Center
08:40AM 59.4000 -70.4833 315° West 220 253 24,000  Level Montreal Center
08:41AM 59.4333 -70.5667 308° West 220 253 24,000  Level Montreal Center
08:42AM 59.4833 -70.6333 326° Northwest 220 253 24,000  Level Montreal Center
08:43AM 59.5333 -70.7167 320° Northwest 220 253 24,100  Climbing Montreal Center
08:44AM 59.5833 -70.7833 326° Northwest 220 253 24,000  Descending Montreal Center
08:45AM 59.6333 -70.8667 320° Northwest 220 253 24,100  Climbing Montreal Center
08:46AM 59.6667 -70.9667 303° West 220 253 24,000 -60 Descending Montreal Center
08:47AM 59.7167 -71.0333 326° Northwest 220 253 24,000  Level Montreal Center
08:48AM 59.7833 -71.1167 328° Northwest 220 253 24,000  Level Montreal Center
08:49AM 59.8167 -71.1833 315° West 220 253 24,000  Level Montreal Center
08:50AM 59.8667 -71.2667 320° Northwest 220 253 24,000  Level Montreal Center
08:51AM 59.9167 -71.3333 326° Northwest 220 253 24,000  Level Montreal Center
08:52AM 59.9500 -71.4333 304° West 220 253 24,000  Level Montreal Center
08:53AM 60.0167 -71.5167 328° Northwest 220 253 24,100  Climbing Montreal Center
08:54AM 60.0667 -71.5833 326° Northwest 220 253 24,000 -60 Descending Montreal Center
08:55AM 60.1000 -71.6833 304° West 220 253 24,000  Level Montreal Center
08:56AM 60.1500 -71.7333 334° Northwest 220 253 24,000  Level Montreal Center
08:57AM 60.1833 -71.8333 304° West 220 253 24,000  Level Montreal Center
08:58AM 60.2333 -71.9000 327° Northwest 220 253 24,000  Level Montreal Center
08:59AM 60.2833 -72.0000 315° West 220 253 24,000  Level Montreal Center
09:00AM 60.3333 -72.0667 327° Northwest 220 253 24,000  Level Montreal Center
09:01AM 60.3667 -72.1500 309° West 210 242 24,000  Level Montreal Center
09:02AM 60.4167 -72.2167 327° Northwest 210 242 24,000  Level Montreal Center
09:03AM 60.4667 -72.3167 315° West 210 242 24,000  Level Montreal Center
09:04AM 60.5000 -72.3833 315° West 210 242 24,000  Level Montreal Center
09:05AM 60.5500 -72.4833 316° Northwest 210 242 24,000  Level Montreal Center
09:07AM 60.6056 -72.5842 318° Northwest  Level FlightAware Approximate
09:14AM 60.9274 -73.1824 317° Northwest  Level FlightAware Approximate
09:15AM 60.9727 -73.2700 317° Northwest  Level FlightAware Approximate
09:16AM 61.0179 -73.3578 317° Northwest  Level FlightAware Approximate
09:17AM 61.0630 -73.4459 317° Northwest  Level FlightAware Approximate
09:18AM 61.1081 -73.5342 317° Northwest  Level FlightAware Approximate
09:19AM 61.1532 -73.6226 318° Northwest  Level FlightAware Approximate
09:20AM 61.1990 -73.7094 318° Northwest  Level FlightAware Approximate
09:21AM 61.2449 -73.7965 318° Northwest  Level FlightAware Approximate
09:22AM 61.2906 -73.8838 318° Northwest  Level FlightAware Approximate
09:23AM 61.3363 -73.9714 317° Northwest  Level FlightAware Approximate
09:24AM 61.3820 -74.0592 317° Northwest  Level FlightAware Approximate
09:25AM 61.4275 -74.1473 317° Northwest  Level FlightAware Approximate
09:26AM 61.4731 -74.2356 317° Northwest  Level FlightAware Approximate
09:27AM 61.5185 -74.3242 317° Northwest  Level FlightAware Approximate
09:28AM 61.5639 -74.4131 317° Northwest  Level FlightAware Approximate
09:29AM 61.6093 -74.5022 317° Northwest  Level FlightAware Approximate
09:30AM 61.6544 -74.5919 317° Northwest  Level FlightAware Approximate
09:31AM 61.6995 -74.6820 317° Northwest  Level FlightAware Approximate
09:32AM 61.7439 -74.7734 314° West  Level FlightAware Approximate
09:33AM 61.7868 -74.8683 314° West  Level FlightAware Approximate
09:34AM 61.8297 -74.9635 314° West  Level FlightAware Approximate
09:35AM 61.8724 -75.0589 314° West  Level FlightAware Approximate
09:36AM 61.9191 -75.1456 321° Northwest  Level FlightAware Approximate
09:37AM 61.9670 -75.2295 321° Northwest  Level FlightAware Approximate
09:38AM 62.0149 -75.3136 321° Northwest  Level FlightAware Approximate
09:39AM 62.0570 -75.4108 312° West  Level FlightAware Approximate
09:40AM 62.0976 -75.5041 321° Northwest  Level FlightAware Approximate
09:41AM 62.1426 -75.5944 306° West  Level FlightAware Approximate
09:42AM 62.1667 -75.6667 306° West  Level FlightAware Approximate
09:43AM 62.1792 -75.6669 306° West  Level Estimated
09:44AM 62.1792 -75.6669 306° West  Level Estimated
09:45AM 62.1792 -75.6669 306° West  Level Estimated
09:46AM 62.1792 -75.6669 306° West  Level Estimated
09:47AM 62.1792 -75.6669 306° West  Level Estimated
09:48AM 62.1792 -75.6669 306° West  Level Estimated
09:49AM 62.1792 -75.6669 306° West  Level Estimated
09:50AM 62.1792 -75.6669 306° West  Level Estimated
09:51AM 62.1792 -75.6669 306° West  Level Estimated